Time;durP1;ratioP1;P1;durP2;ratioP2;P2;SDS_P1;SDS_P2;PMS_P1;PMS_P2;Temp;Humidity;BMP_temperature;BMP_pressure;BME280_temperature;BME280_humidity;BME280_pressure;Samples;Min_cycle;Max_cycle;Signal;HPM_P1;HPM_P2
2021/09/12 00:02:15;;;;;;;11.70;8.35;;;17.80;99.90;;;;;;5069477;28;20427;-64
2021/09/12 00:04:40;;;;;;;16.40;9.20;;;17.70;99.90;;;;;;5072231;28;20020;-63
2021/09/12 00:07:06;;;;;;;12.80;9.75;;;17.80;99.90;;;;;;5054238;28;20020;-63
2021/09/12 00:09:31;;;;;;;14.88;9.98;;;17.70;99.90;;;;;;5051310;28;20025;-63
2021/09/12 00:11:57;;;;;;;13.32;10.07;;;17.70;99.90;;;;;;5071000;28;20024;-64
2021/09/12 00:14:23;;;;;;;14.48;10.15;;;17.70;99.90;;;;;;5068701;28;20060;-64
2021/09/12 00:16:48;;;;;;;12.20;9.30;;;17.60;99.90;;;;;;5070842;28;20021;-64
2021/09/12 00:19:14;;;;;;;14.80;9.48;;;17.70;99.90;;;;;;5053888;28;20481;-63
2021/09/12 00:21:39;;;;;;;17.15;11.68;;;17.70;99.90;;;;;;5071045;28;20134;-63
2021/09/12 00:24:05;;;;;;;17.42;11.63;;;17.70;99.90;;;;;;5070135;28;20476;-63
2021/09/12 00:26:30;;;;;;;13.90;10.40;;;17.70;99.90;;;;;;5071217;28;20052;-63
2021/09/12 00:28:56;;;;;;;14.10;10.10;;;17.70;99.90;;;;;;5053741;28;20083;-64
2021/09/12 00:31:21;;;;;;;14.35;11.27;;;17.70;99.90;;;;;;5069287;28;20077;-64
2021/09/12 00:33:47;;;;;;;14.98;10.25;;;17.70;99.90;;;;;;5067260;28;20032;-64
2021/09/12 00:36:12;;;;;;;14.45;9.48;;;17.70;99.90;;;;;;5052283;28;20036;-64
2021/09/12 00:38:38;;;;;;;16.65;10.32;;;17.70;99.90;;;;;;5063944;28;20063;-64
2021/09/12 00:41:03;;;;;;;16.08;9.93;;;17.70;99.90;;;;;;5069189;28;20044;-64
2021/09/12 00:43:29;;;;;;;12.32;8.75;;;17.70;99.90;;;;;;5071377;28;20056;-64
2021/09/12 00:45:56;;;;;;;9.90;8.32;;;17.80;99.90;;;;;;5071723;28;20048;-64
2021/09/12 00:48:22;;;;;;;10.85;8.25;;;17.70;99.90;;;;;;5068955;28;20025;-64
2021/09/12 00:50:49;;;;;;;12.32;9.63;;;17.70;99.90;;;;;;5071566;28;20024;-63
2021/09/12 00:53:16;;;;;;;17.75;10.52;;;17.70;99.90;;;;;;5068076;28;20044;-63
2021/09/12 00:55:43;;;;;;;13.23;9.18;;;17.70;99.90;;;;;;5068985;28;20119;-64
2021/09/12 00:58:13;;;;;;;12.82;9.48;;;17.70;99.90;;;;;;5071567;28;20025;-64
2021/09/12 01:00:38;;;;;;;12.73;9.10;;;17.70;99.90;;;;;;5053498;28;20388;-63
2021/09/12 01:03:04;;;;;;;13.05;9.63;;;17.70;99.90;;;;;;5071851;28;20020;-64
2021/09/12 01:05:30;;;;;;;12.15;9.85;;;17.60;99.90;;;;;;5075364;28;20033;-63
2021/09/12 01:07:55;;;;;;;15.23;9.38;;;17.60;99.90;;;;;;5057443;28;20020;-64
2021/09/12 01:10:21;;;;;;;12.98;8.57;;;17.60;99.90;;;;;;5072027;28;20024;-64
2021/09/12 01:12:46;;;;;;;13.73;8.82;;;17.60;99.90;;;;;;5057613;28;20042;-63
2021/09/12 01:15:12;;;;;;;12.15;8.80;;;17.50;99.90;;;;;;5075539;28;20063;-64
2021/09/12 01:17:37;;;;;;;12.38;7.72;;;17.50;99.90;;;;;;5075245;28;20078;-64
2021/09/12 01:20:04;;;;;;;12.45;8.07;;;17.50;99.90;;;;;;5075264;28;20048;-64
2021/09/12 01:22:30;;;;;;;10.88;7.63;;;17.50;99.90;;;;;;5072785;28;20075;-64
2021/09/12 01:24:55;;;;;;;8.68;6.60;;;17.40;99.90;;;;;;5072070;28;20024;-64
2021/09/12 01:27:21;;;;;;;14.40;7.80;;;17.40;99.90;;;;;;5075346;28;20017;-64
2021/09/12 01:29:47;;;;;;;12.93;7.78;;;17.40;99.70;;;;;;5055080;28;20032;-64
2021/09/12 01:32:13;;;;;;;11.82;8.52;;;17.40;99.70;;;;;;5074346;28;20373;-64
2021/09/12 01:34:38;;;;;;;10.30;8.02;;;17.40;99.70;;;;;;5074957;28;20058;-63
2021/09/12 01:37:04;;;;;;;10.73;7.63;;;17.30;99.60;;;;;;5062093;28;20016;-64
2021/09/12 01:39:30;;;;;;;12.85;8.50;;;17.30;99.60;;;;;;5067477;28;20090;-64
2021/09/12 01:41:55;;;;;;;11.45;8.13;;;17.30;99.60;;;;;;5066911;28;20535;-64
2021/09/12 01:44:24;;;;;;;9.23;7.45;;;17.20;99.60;;;;;;5063569;28;20509;-64
2021/09/12 01:46:50;;;;;;;12.03;8.00;;;17.20;99.60;;;;;;5071017;28;20020;-64
2021/09/12 01:49:16;;;;;;;10.60;7.70;;;17.20;99.60;;;;;;5063208;28;20279;-64
2021/09/12 01:51:42;;;;;;;12.07;8.13;;;17.20;99.50;;;;;;5050952;28;20075;-64
2021/09/12 01:54:08;;;;;;;13.68;8.35;;;17.10;99.50;;;;;;5063495;28;20020;-63
2021/09/12 01:56:33;;;;;;;9.80;6.60;;;17.10;99.40;;;;;;5040396;28;20025;-64
2021/09/12 01:58:59;;;;;;;9.80;7.53;;;17.10;99.40;;;;;;5064177;28;20408;-64
2021/09/12 02:01:24;;;;;;;8.20;5.75;;;17.00;99.40;;;;;;5065671;28;20036;-64
2021/09/12 02:03:50;;;;;;;8.40;6.18;;;17.00;99.40;;;;;;5070320;28;20009;-63
2021/09/12 02:06:16;;;;;;;10.23;6.30;;;17.00;99.30;;;;;;5051571;28;20162;-64
2021/09/12 02:08:41;;;;;;;8.95;6.13;;;17.00;99.20;;;;;;5042767;28;20117;-64
2021/09/12 02:11:07;;;;;;;10.40;5.97;;;16.90;99.20;;;;;;5060064;28;20028;-63
2021/09/12 02:13:33;;;;;;;8.27;5.60;;;16.90;99.10;;;;;;5045711;28;20035;-64
2021/09/12 02:15:58;;;;;;;9.30;5.90;;;16.90;99.00;;;;;;5050995;28;20017;-64
2021/09/12 02:18:24;;;;;;;7.97;5.20;;;16.80;99.00;;;;;;5065048;28;20373;-64
2021/09/12 02:20:49;;;;;;;9.20;5.25;;;16.80;98.90;;;;;;5059577;28;20493;-64
2021/09/12 02:23:15;;;;;;;7.28;5.03;;;16.90;98.90;;;;;;5065904;28;20450;-64
2021/09/12 02:25:40;;;;;;;7.30;3.92;;;16.90;98.90;;;;;;5067975;28;20021;-63
2021/09/12 02:28:06;;;;;;;10.20;5.25;;;16.80;98.70;;;;;;5033927;28;20017;-63
2021/09/12 02:30:32;;;;;;;6.72;4.65;;;16.80;98.70;;;;;;5057453;28;20439;-63
2021/09/12 02:32:57;;;;;;;8.27;4.10;;;16.80;98.60;;;;;;5058378;28;20027;-64
2021/09/12 02:35:23;;;;;;;4.25;3.33;;;16.80;98.60;;;;;;5061432;28;20060;-64
2021/09/12 02:37:49;;;;;;;5.15;3.17;;;16.80;98.60;;;;;;5065545;28;20009;-64
2021/09/12 02:40:14;;;;;;;5.25;3.90;;;16.70;98.50;;;;;;5046449;28;20028;-63
2021/09/12 02:42:40;;;;;;;6.93;3.80;;;16.70;98.50;;;;;;5061716;28;20021;-63
2021/09/12 02:45:10;;;;;;;6.25;4.03;;;16.70;98.40;;;;;;5066770;28;20500;-64
2021/09/12 02:47:36;;;;;;;10.77;4.15;;;16.70;98.40;;;;;;5062779;28;20021;-64
2021/09/12 02:50:03;;;;;;;6.70;3.85;;;16.70;98.30;;;;;;5060098;28;20061;-64
2021/09/12 02:52:29;;;;;;;7.75;3.60;;;16.60;98.30;;;;;;5063803;28;20025;-64
2021/09/12 02:54:54;;;;;;;7.63;4.35;;;16.60;98.20;;;;;;5065863;28;20052;-63
2021/09/12 02:57:20;;;;;;;4.38;3.80;;;16.50;98.20;;;;;;5068642;28;20043;-64
2021/09/12 02:59:45;;;;;;;6.25;4.07;;;16.50;98.20;;;;;;5063268;28;20376;-63
2021/09/12 03:02:10;;;;;;;7.35;3.72;;;16.50;98.10;;;;;;5066298;28;20397;-63
2021/09/12 03:04:36;;;;;;;8.40;3.08;;;16.40;98.10;;;;;;5064623;28;20032;-64
2021/09/12 03:07:02;;;;;;;6.15;3.42;;;16.40;98.10;;;;;;5062132;28;20032;-64
2021/09/12 03:09:27;;;;;;;6.72;3.30;;;16.40;98.10;;;;;;5049493;28;20396;-64
2021/09/12 03:11:53;;;;;;;5.70;3.00;;;16.30;98.10;;;;;;5055424;28;20060;-64
2021/09/12 03:14:19;;;;;;;8.45;4.05;;;16.30;98.00;;;;;;5056035;28;20087;-64
2021/09/12 03:16:45;;;;;;;7.53;4.03;;;16.20;98.00;;;;;;5046718;28;20093;-64
2021/09/12 03:19:11;;;;;;;5.25;3.35;;;16.20;98.00;;;;;;5067228;28;20048;-64
2021/09/12 03:21:36;;;;;;;7.30;4.78;;;16.10;98.00;;;;;;5062829;28;20141;-64
2021/09/12 03:24:02;;;;;;;6.55;4.32;;;16.00;98.00;;;;;;5050541;28;20020;-64
2021/09/12 03:26:28;;;;;;;6.43;4.22;;;15.90;98.10;;;;;;5059635;28;20067;-64
2021/09/12 03:28:53;;;;;;;5.85;4.00;;;15.80;98.10;;;;;;5060891;28;21231;-64
2021/09/12 03:31:19;;;;;;;4.90;4.18;;;15.80;98.20;;;;;;5064228;28;20026;-64
2021/09/12 03:33:44;;;;;;;5.68;3.47;;;15.80;98.20;;;;;;5042760;28;20108;-63
2021/09/12 03:36:10;;;;;;;8.57;5.55;;;15.80;98.20;;;;;;5046881;28;20028;-64
2021/09/12 03:38:35;;;;;;;8.32;4.55;;;15.80;98.20;;;;;;5061084;28;20016;-64
2021/09/12 03:41:01;;;;;;;6.88;5.00;;;15.80;98.20;;;;;;5066095;28;20047;-64
2021/09/12 03:43:27;;;;;;;10.25;6.15;;;15.60;98.20;;;;;;5058744;28;20112;-63
2021/09/12 03:45:55;;;;;;;9.70;5.72;;;15.60;98.20;;;;;;5065757;28;20056;-63
2021/09/12 03:48:21;;;;;;;7.38;5.82;;;15.50;98.30;;;;;;5056484;28;20036;-64
2021/09/12 03:50:47;;;;;;;11.90;6.47;;;15.50;98.30;;;;;;5057439;28;20028;-64
2021/09/12 03:53:12;;;;;;;10.70;6.72;;;15.30;98.40;;;;;;5065983;28;20016;-64
2021/09/12 03:55:38;;;;;;;9.38;6.40;;;15.20;98.50;;;;;;5064385;28;20086;-64
2021/09/12 03:58:03;;;;;;;10.18;6.28;;;15.10;98.70;;;;;;5047341;28;20024;-63
2021/09/12 04:00:29;;;;;;;7.13;5.65;;;15.00;99.00;;;;;;5047939;28;20024;-63
2021/09/12 04:02:54;;;;;;;9.68;6.63;;;14.90;99.10;;;;;;5057120;28;20029;-64
2021/09/12 04:05:20;;;;;;;11.43;7.05;;;14.90;99.10;;;;;;5063300;28;20480;-63
2021/09/12 04:07:46;;;;;;;12.82;8.48;;;14.90;99.20;;;;;;5039687;28;20061;-63
2021/09/12 04:10:11;;;;;;;8.55;6.45;;;14.80;99.20;;;;;;5062307;28;20060;-63
2021/09/12 04:12:37;;;;;;;13.88;8.48;;;14.80;99.40;;;;;;5062332;28;20096;-64
2021/09/12 04:15:03;;;;;;;11.77;8.07;;;14.70;99.40;;;;;;5040282;28;20045;-64
2021/09/12 04:17:28;;;;;;;13.82;8.73;;;14.60;99.50;;;;;;5063042;28;20056;-64
2021/09/12 04:19:54;;;;;;;13.07;9.20;;;14.60;99.70;;;;;;5063223;28;20743;-63
2021/09/12 04:22:19;;;;;;;11.73;9.07;;;14.50;99.80;;;;;;5059394;28;20426;-63
2021/09/12 04:24:45;;;;;;;12.27;8.20;;;14.40;99.90;;;;;;5064035;28;20063;-63
2021/09/12 04:27:10;;;;;;;16.48;9.55;;;14.40;99.90;;;;;;5060098;28;20066;-63
2021/09/12 04:29:36;;;;;;;12.82;8.50;;;14.40;99.90;;;;;;5062619;28;20047;-64
2021/09/12 04:32:02;;;;;;;12.63;8.77;;;14.30;99.90;;;;;;5058398;28;20055;-63
2021/09/12 04:34:28;;;;;;;13.60;9.38;;;14.30;99.90;;;;;;5063422;28;20032;-63
2021/09/12 04:36:53;;;;;;;12.82;8.95;;;14.30;99.90;;;;;;5044972;28;20070;-63
2021/09/12 04:39:19;;;;;;;12.98;9.15;;;14.20;99.90;;;;;;5061963;28;20029;-63
2021/09/12 04:41:44;;;;;;;14.80;10.70;;;14.20;99.90;;;;;;5063401;28;20025;-63
2021/09/12 04:44:10;;;;;;;15.98;9.55;;;14.20;99.90;;;;;;5065779;28;20041;-63
2021/09/12 04:46:35;;;;;;;20.60;11.05;;;14.10;99.90;;;;;;5062946;28;20094;-63
2021/09/12 04:49:01;;;;;;;13.60;9.02;;;14.10;99.90;;;;;;5037484;28;20029;-63
2021/09/12 04:51:26;;;;;;;14.20;10.82;;;14.10;99.90;;;;;;5056035;28;20097;-63
2021/09/12 04:53:54;;;;;;;14.25;10.82;;;14.00;99.90;;;;;;5061319;28;20476;-63
2021/09/12 04:56:19;;;;;;;17.65;11.80;;;14.00;99.90;;;;;;5041391;28;20047;-64
2021/09/12 04:58:45;;;;;;;15.38;10.85;;;14.00;99.90;;;;;;5059350;28;20396;-63
2021/09/12 05:01:10;;;;;;;13.48;9.70;;;14.00;99.90;;;;;;5064621;28;20036;-63
2021/09/12 05:03:36;;;;;;;17.25;11.68;;;14.00;99.90;;;;;;5065437;28;20636;-63
2021/09/12 05:06:01;;;;;;;12.65;10.05;;;14.00;99.90;;;;;;5060899;28;20033;-63
2021/09/12 05:08:27;;;;;;;14.82;9.63;;;14.00;99.90;;;;;;5062737;28;20029;-63
2021/09/12 05:10:52;;;;;;;17.60;11.07;;;14.00;99.90;;;;;;5062891;28;20031;-63
2021/09/12 05:13:18;;;;;;;15.68;10.45;;;14.00;99.90;;;;;;5061131;28;20036;-63
2021/09/12 05:15:43;;;;;;;16.85;9.98;;;14.00;99.90;;;;;;5055857;28;20419;-63
2021/09/12 05:18:13;;;;;;;14.75;10.38;;;14.00;99.90;;;;;;5033928;28;20024;-63
2021/09/12 05:20:39;;;;;;;11.85;9.25;;;13.90;99.90;;;;;;5051772;28;20083;-63
2021/09/12 05:23:05;;;;;;;11.93;9.88;;;14.00;99.90;;;;;;5051850;28;20108;-63
2021/09/12 05:25:32;;;;;;;15.45;9.45;;;14.00;99.90;;;;;;5052107;28;20028;-64
2021/09/12 05:27:58;;;;;;;15.85;8.98;;;14.00;99.90;;;;;;5034184;28;20021;-63
2021/09/12 05:30:24;;;;;;;11.15;8.07;;;14.00;99.90;;;;;;5051712;28;20033;-63
2021/09/12 05:32:49;;;;;;;13.23;8.38;;;14.00;99.90;;;;;;5051835;28;20021;-63
2021/09/12 05:35:16;;;;;;;13.52;9.05;;;14.10;99.90;;;;;;5051787;28;20393;-63
2021/09/12 05:37:42;;;;;;;9.98;7.90;;;14.10;99.90;;;;;;5051894;28;20071;-63
2021/09/12 05:40:09;;;;;;;13.73;7.88;;;14.10;99.90;;;;;;5051987;28;20370;-63
2021/09/12 05:42:34;;;;;;;12.45;8.15;;;14.10;99.90;;;;;;5051755;28;20033;-63
2021/09/12 05:45:00;;;;;;;11.80;7.53;;;14.10;99.90;;;;;;5065464;28;20074;-63
2021/09/12 05:47:25;;;;;;;11.85;7.22;;;14.10;99.90;;;;;;5033919;28;20037;-63
2021/09/12 05:49:51;;;;;;;11.13;7.95;;;14.10;99.90;;;;;;5053132;28;20078;-63
2021/09/12 05:52:16;;;;;;;11.70;6.70;;;14.10;99.90;;;;;;5055213;28;20421;-64
2021/09/12 05:54:42;;;;;;;8.63;6.20;;;14.10;99.90;;;;;;5047060;28;20027;-63
2021/09/12 05:57:07;;;;;;;12.57;6.95;;;14.10;99.90;;;;;;5072453;28;20031;-63
2021/09/12 05:59:33;;;;;;;9.32;6.35;;;14.10;99.90;;;;;;5055537;28;20040;-63
2021/09/12 06:01:59;;;;;;;10.55;6.75;;;14.10;99.90;;;;;;5055282;28;20029;-63
2021/09/12 06:04:24;;;;;;;8.80;6.30;;;14.10;99.90;;;;;;5054939;28;20029;-63
2021/09/12 06:06:50;;;;;;;10.52;7.47;;;14.10;99.90;;;;;;5040342;28;20415;-63
2021/09/12 06:09:45;;;;;;;9.73;6.70;;;14.20;99.90;;;;;;5071418;28;20445;-63
2021/09/12 06:12:11;;;;;;;7.60;5.50;;;14.20;99.90;;;;;;5074318;28;20490;-63
2021/09/12 06:14:36;;;;;;;8.60;5.47;;;14.20;99.90;;;;;;5056317;28;20025;-63
2021/09/12 06:17:05;;;;;;;12.05;8.15;;;14.20;99.90;;;;;;5061017;28;20025;-63
2021/09/12 06:19:33;;;;;;;11.07;7.05;;;14.20;99.90;;;;;;5053932;28;20029;-63
2021/09/12 06:21:58;;;;;;;9.02;6.40;;;14.30;99.90;;;;;;5054905;28;20021;-63
2021/09/12 06:24:24;;;;;;;11.60;7.75;;;14.30;99.90;;;;;;5054616;28;20032;-63
2021/09/12 06:26:49;;;;;;;9.23;7.15;;;14.30;99.90;;;;;;5017117;28;20029;-63
2021/09/12 06:29:15;;;;;;;13.52;7.38;;;14.30;99.90;;;;;;5050230;28;20488;-63
2021/09/12 06:31:40;;;;;;;9.93;7.50;;;14.30;99.90;;;;;;5054720;28;20017;-63
2021/09/12 06:34:06;;;;;;;9.55;7.35;;;14.30;99.90;;;;;;5054800;28;20380;-63
2021/09/12 06:36:31;;;;;;;10.68;7.40;;;14.30;99.90;;;;;;5054236;28;20058;-63
2021/09/12 06:39:20;;;;;;;16.83;8.77;;;14.30;99.90;;;;;;5054563;28;20051;-63
2021/09/12 06:41:46;;;;;;;11.68;7.60;;;14.40;99.90;;;;;;5046049;28;20085;-63
2021/09/12 06:44:13;;;;;;;9.88;7.15;;;14.30;99.90;;;;;;5065545;28;20508;-63
2021/09/12 06:46:40;;;;;;;15.07;7.15;;;14.40;99.90;;;;;;5060829;28;20049;-63
2021/09/12 06:49:05;;;;;;;8.52;5.25;;;14.50;99.90;;;;;;5054296;28;20029;-63
2021/09/12 06:51:31;;;;;;;10.18;6.35;;;14.50;99.90;;;;;;5054133;28;20365;-63
2021/09/12 06:53:56;;;;;;;12.18;6.38;;;14.50;99.90;;;;;;5054026;28;20435;-63
2021/09/12 06:56:22;;;;;;;9.25;6.35;;;14.60;99.90;;;;;;5044820;28;20029;-63
2021/09/12 06:58:48;;;;;;;9.32;6.25;;;14.70;99.90;;;;;;5049431;28;20021;-63
2021/09/12 07:01:13;;;;;;;10.85;6.88;;;14.70;99.90;;;;;;5036433;28;20516;-63
2021/09/12 07:03:39;;;;;;;9.90;6.72;;;14.80;99.90;;;;;;5054041;28;20464;-63
2021/09/12 07:06:04;;;;;;;10.90;6.78;;;14.80;99.90;;;;;;5053774;28;20435;-63
2021/09/12 07:08:30;;;;;;;9.52;6.60;;;14.90;99.90;;;;;;5035980;28;20028;-63
2021/09/12 07:10:56;;;;;;;8.85;6.10;;;14.90;99.90;;;;;;5063969;28;20115;-63
2021/09/12 07:13:22;;;;;;;8.93;6.68;;;15.00;99.90;;;;;;5073406;28;20531;-63
2021/09/12 07:15:48;;;;;;;9.50;6.13;;;15.10;99.90;;;;;;5073357;28;20515;-63
2021/09/12 07:18:19;;;;;;;10.38;7.50;;;15.10;99.90;;;;;;5065714;28;20115;-63
2021/09/12 07:20:45;;;;;;;12.30;8.45;;;15.20;99.90;;;;;;5067977;28;20028;-63
2021/09/12 07:23:10;;;;;;;11.70;7.85;;;15.20;99.90;;;;;;5073212;28;20028;-63
2021/09/12 07:25:36;;;;;;;15.10;8.55;;;15.30;99.90;;;;;;5049736;28;20107;-63
2021/09/12 07:28:01;;;;;;;13.73;7.90;;;15.40;99.90;;;;;;5073153;28;20017;-64
2021/09/12 07:30:27;;;;;;;12.13;7.90;;;15.40;99.90;;;;;;5073008;28;20032;-64
2021/09/12 07:32:53;;;;;;;9.25;6.30;;;15.40;99.90;;;;;;5072990;28;20087;-64
2021/09/12 07:35:18;;;;;;;13.05;8.32;;;15.50;99.90;;;;;;5073050;28;20150;-63
2021/09/12 07:37:44;;;;;;;18.50;8.82;;;15.50;99.90;;;;;;5054787;28;20107;-63
2021/09/12 07:40:10;;;;;;;10.00;8.07;;;15.60;99.90;;;;;;5072872;28;20016;-63
2021/09/12 07:42:35;;;;;;;12.98;7.35;;;15.70;99.90;;;;;;5054678;28;20017;-63
2021/09/12 07:45:01;;;;;;;10.32;6.63;;;15.70;99.90;;;;;;5072713;28;20048;-64
2021/09/12 07:47:27;;;;;;;11.30;5.95;;;15.70;99.90;;;;;;5052288;28;20041;-64
2021/09/12 07:49:52;;;;;;;9.00;6.93;;;15.80;99.90;;;;;;5059770;28;20021;-64
2021/09/12 07:52:25;;;;;;;13.02;7.72;;;15.90;99.90;;;;;;5064829;28;20087;-64
2021/09/12 07:54:51;;;;;;;12.98;7.90;;;15.90;99.70;;;;;;5052990;28;20480;-64
2021/09/12 07:57:16;;;;;;;14.57;9.45;;;16.00;99.70;;;;;;5053082;28;20033;-65
2021/09/12 07:59:42;;;;;;;10.85;7.43;;;16.00;99.70;;;;;;5053104;28;20028;-64
2021/09/12 08:02:07;;;;;;;11.77;8.45;;;16.00;99.70;;;;;;5052840;28;20021;-64
2021/09/12 08:04:33;;;;;;;11.95;7.90;;;16.10;99.70;;;;;;5052823;28;20506;-64
2021/09/12 08:06:58;;;;;;;9.05;7.05;;;16.20;99.60;;;;;;5052546;28;20039;-64
2021/09/12 08:09:24;;;;;;;7.35;5.50;;;16.20;99.60;;;;;;5052778;28;20059;-65
2021/09/12 08:11:49;;;;;;;12.77;6.40;;;16.30;99.50;;;;;;5034598;28;20046;-65
2021/09/12 08:14:15;;;;;;;10.13;6.72;;;16.40;99.40;;;;;;5034847;28;20039;-65
2021/09/12 08:16:40;;;;;;;7.65;6.05;;;16.60;99.30;;;;;;5052675;28;20424;-65
2021/09/12 08:19:06;;;;;;;11.18;7.13;;;16.60;99.20;;;;;;5052290;28;20036;-65
2021/09/12 08:21:31;;;;;;;10.65;6.82;;;16.70;99.10;;;;;;5052757;28;20025;-65
2021/09/12 08:23:57;;;;;;;8.95;6.57;;;16.70;99.00;;;;;;5039177;28;20527;-65
2021/09/12 08:26:22;;;;;;;7.15;6.18;;;16.80;99.00;;;;;;5053144;28;20035;-64
2021/09/12 08:28:48;;;;;;;10.63;6.70;;;16.90;98.90;;;;;;5052495;28;20048;-64
2021/09/12 08:31:14;;;;;;;11.40;7.13;;;17.00;98.80;;;;;;5052466;28;20033;-64
2021/09/12 08:33:39;;;;;;;9.57;7.50;;;17.00;98.60;;;;;;5052827;28;20025;-64
2021/09/12 08:36:13;;;;;;;12.05;6.30;;;17.00;98.40;;;;;;5052368;28;20025;-67
2021/09/12 08:38:39;;;;;;;9.13;6.85;;;17.10;98.30;;;;;;5034477;28;20057;-67
2021/09/12 08:41:05;;;;;;;10.75;6.82;;;17.20;98.30;;;;;;5052430;28;20511;-67
2021/09/12 08:43:32;;;;;;;10.52;8.07;;;17.30;98.10;;;;;;5053665;28;20048;-67
2021/09/12 08:45:57;;;;;;;11.05;7.10;;;17.40;97.90;;;;;;5046788;28;20099;-66
2021/09/12 08:48:23;;;;;;;12.57;6.72;;;17.60;97.80;;;;;;5060384;28;20041;-66
2021/09/12 08:50:49;;;;;;;9.80;6.88;;;17.80;97.50;;;;;;5071946;28;20099;-67
2021/09/12 08:53:14;;;;;;;8.57;6.13;;;18.00;97.40;;;;;;5063384;28;20016;-67
2021/09/12 08:55:40;;;;;;;9.23;5.97;;;18.10;97.10;;;;;;5072161;28;20476;-66
2021/09/12 08:58:05;;;;;;;7.90;5.72;;;18.20;96.90;;;;;;5055154;28;20028;-66
2021/09/12 09:00:32;;;;;;;5.68;5.10;;;18.30;96.90;;;;;;5037891;28;20081;-67
2021/09/12 09:03:00;;;;;;;10.50;5.80;;;18.50;96.70;;;;;;5034480;28;20036;-67
2021/09/12 09:05:50;;;;;;;8.38;5.95;;;18.70;96.50;;;;;;5031843;28;20064;-67
2021/09/12 09:08:18;;;;;;;10.13;5.88;;;18.80;96.00;;;;;;5031807;28;20025;-67
2021/09/12 09:10:49;;;;;;;7.65;5.90;;;18.80;95.80;;;;;;5031617;28;20021;-67
2021/09/12 09:13:35;;;;;;;12.30;7.30;;;18.90;95.60;;;;;;5031729;28;20093;-67
2021/09/12 09:16:07;;;;;;;11.20;6.80;;;18.90;95.10;;;;;;5033240;28;20028;-67
2021/09/12 09:19:16;;;;;;;7.15;5.60;;;18.90;94.80;;;;;;5024875;28;20378;-67
2021/09/12 09:21:47;;;;;;;8.38;5.25;;;18.90;95.00;;;;;;5037527;28;20159;-67
2021/09/12 09:24:15;;;;;;;7.22;5.10;;;19.00;95.00;;;;;;5052382;28;20104;-67
2021/09/12 09:26:43;;;;;;;8.95;5.47;;;19.10;95.00;;;;;;5055885;28;20013;-67
2021/09/12 09:29:09;;;;;;;10.55;5.65;;;19.20;94.80;;;;;;5037970;28;20028;-67
2021/09/12 09:31:35;;;;;;;12.20;8.00;;;19.20;94.80;;;;;;5043807;28;20381;-67
2021/09/12 09:34:17;;;;;;;11.15;7.57;;;19.20;94.10;;;;;;5050765;28;20017;-67
2021/09/12 09:36:42;;;;;;;8.00;5.63;;;19.10;94.00;;;;;;5046052;28;20381;-67
2021/09/12 09:39:08;;;;;;;9.60;6.63;;;19.20;94.30;;;;;;5049630;28;20496;-67
2021/09/12 09:41:38;;;;;;;10.32;5.90;;;19.20;94.20;;;;;;5055865;28;20507;-67
2021/09/12 09:44:13;;;;;;;9.02;5.82;;;19.30;94.10;;;;;;5044875;28;20041;-67
2021/09/12 09:46:41;;;;;;;8.23;5.90;;;19.40;94.00;;;;;;5041301;28;20029;-67
2021/09/12 09:49:22;;;;;;;9.20;5.80;;;19.40;94.10;;;;;;5046004;28;20122;-67
2021/09/12 09:51:53;;;;;;;10.30;5.97;;;19.50;94.00;;;;;;5055015;28;20025;-67
2021/09/12 09:54:20;;;;;;;9.23;6.40;;;19.60;94.00;;;;;;5063185;28;20525;-67
2021/09/12 09:56:47;;;;;;;11.18;6.55;;;19.70;93.90;;;;;;5058896;28;20021;-67
2021/09/12 09:59:15;;;;;;;9.27;7.38;;;19.90;93.70;;;;;;5037154;28;20017;-67
2021/09/12 10:01:42;;;;;;;10.65;6.80;;;19.90;93.40;;;;;;5055357;28;20029;-67
2021/09/12 10:04:13;;;;;;;9.70;6.82;;;20.00;93.30;;;;;;5037556;28;20086;-67
2021/09/12 10:09:26;;;;;;;9.60;7.18;;;19.90;93.20;;;;;;5055210;28;20029;-67
2021/09/12 10:11:54;;;;;;;12.55;8.25;;;19.90;93.20;;;;;;5055334;28;20021;-67
2021/09/12 10:14:33;;;;;;;10.50;7.95;;;19.90;93.20;;;;;;5054679;28;20071;-68
2021/09/12 10:17:13;;;;;;;9.85;8.07;;;19.80;93.00;;;;;;5055082;28;20024;-65
2021/09/12 10:19:41;;;;;;;9.40;7.35;;;19.80;93.20;;;;;;5055065;28;20039;-65
2021/09/12 10:22:10;;;;;;;9.82;8.07;;;19.80;93.20;;;;;;5054786;28;20025;-65
2021/09/12 10:24:56;;;;;;;8.82;7.88;;;19.80;93.10;;;;;;5033647;28;20079;-65
2021/09/12 10:27:44;;;;;;;9.48;7.65;;;19.70;92.90;;;;;;5054635;28;20037;-65
2021/09/12 10:30:27;;;;;;;9.55;7.68;;;19.80;92.90;;;;;;5053774;28;20135;-65
2021/09/12 10:33:13;;;;;;;12.10;7.82;;;19.80;92.90;;;;;;5054197;28;20025;-65
2021/09/12 10:35:45;;;;;;;9.70;7.88;;;19.80;92.70;;;;;;5051503;28;20103;-65
2021/09/12 10:38:12;;;;;;;10.95;8.32;;;19.70;92.80;;;;;;5035955;28;20377;-65
2021/09/12 10:40:47;;;;;;;11.68;7.90;;;19.70;92.90;;;;;;5053671;28;20114;-65
2021/09/12 10:43:24;;;;;;;9.90;8.20;;;19.80;92.80;;;;;;5053520;28;20082;-65
2021/09/12 10:46:09;;;;;;;12.18;8.27;;;19.90;92.70;;;;;;5054258;28;20036;-65
2021/09/12 10:48:36;;;;;;;10.25;8.50;;;20.00;92.70;;;;;;5054333;28;20032;-65
2021/09/12 10:51:06;;;;;;;11.77;8.88;;;19.90;92.60;;;;;;5036464;28;20479;-65
2021/09/12 10:56:10;;;;;;;11.35;8.10;;;19.90;92.40;;;;;;5054493;28;20029;-65
2021/09/12 10:58:36;;;;;;;8.43;7.28;;;19.90;92.50;;;;;;5036375;28;20073;-64
2021/09/12 11:01:04;;;;;;;9.75;7.25;;;20.00;92.40;;;;;;5054251;28;20480;-64
2021/09/12 11:03:31;;;;;;;11.15;7.80;;;20.10;92.40;;;;;;5040224;28;20039;-64
2021/09/12 11:05:57;;;;;;;13.98;8.40;;;20.10;92.40;;;;;;5033603;28;20057;-65
2021/09/12 11:09:01;;;;;;;8.25;7.10;;;20.20;92.40;;;;;;5033631;28;20123;-64
2021/09/12 11:11:28;;;;;;;10.48;8.05;;;20.30;92.20;;;;;;5033412;28;20025;-64
2021/09/12 11:13:55;;;;;;;9.77;7.93;;;20.30;92.10;;;;;;5033531;28;20508;-65
2021/09/12 11:16:22;;;;;;;9.02;7.93;;;20.50;91.90;;;;;;5033751;28;20496;-65
2021/09/12 11:19:03;;;;;;;13.93;8.48;;;20.50;91.80;;;;;;5033825;28;20033;-64
2021/09/12 11:21:34;;;;;;;12.52;8.55;;;20.50;91.60;;;;;;5034008;28;20036;-64
2021/09/12 11:24:07;;;;;;;12.40;9.43;;;20.40;91.80;;;;;;5034018;28;20023;-64
2021/09/12 11:26:51;;;;;;;10.55;9.13;;;20.50;91.80;;;;;;5033663;28;20025;-65
2021/09/12 11:29:24;;;;;;;13.40;11.05;;;20.60;91.80;;;;;;5033877;28;20029;-64
2021/09/12 11:32:09;;;;;;;14.15;9.38;;;20.70;91.40;;;;;;5034047;28;20025;-64
2021/09/12 11:34:36;;;;;;;16.50;11.45;;;20.70;91.30;;;;;;5033916;28;20483;-64
2021/09/12 11:37:03;;;;;;;11.80;9.48;;;20.80;91.10;;;;;;5032396;28;20029;-65
2021/09/12 11:39:42;;;;;;;11.05;8.88;;;20.80;91.20;;;;;;5033293;28;20029;-65
2021/09/12 11:42:11;;;;;;;11.85;9.75;;;21.00;91.10;;;;;;5031650;28;20025;-64
2021/09/12 11:44:37;;;;;;;11.60;7.97;;;21.00;91.10;;;;;;5045093;28;20119;-65
2021/09/12 11:47:08;;;;;;;16.13;11.40;;;21.00;91.20;;;;;;5040973;28;20024;-64
2021/09/12 11:49:33;;;;;;;11.35;9.32;;;20.90;90.80;;;;;;5034782;28;20014;-65
2021/09/12 11:54:54;;;;;;;11.25;9.23;;;21.10;90.90;;;;;;5038620;28;20083;-65
2021/09/12 11:57:19;;;;;;;11.57;9.07;;;21.20;90.80;;;;;;5052010;28;20028;-65
2021/09/12 11:59:47;;;;;;;8.60;7.55;;;21.40;90.70;;;;;;5051385;28;20036;-65
2021/09/12 12:02:15;;;;;;;10.63;8.88;;;21.60;90.60;;;;;;5051146;28;20029;-65
2021/09/12 12:04:45;;;;;;;9.82;8.55;;;21.90;90.30;;;;;;5048685;28;20033;-65
2021/09/12 12:07:10;;;;;;;7.85;7.03;;;22.20;90.00;;;;;;5032299;28;20025;-65
2021/09/12 12:09:47;;;;;;;12.68;11.18;;;23.40;89.50;;;;;;5047369;28;20025;-64
2021/09/12 12:12:15;;;;;;;11.82;8.73;;;24.10;84.00;;;;;;5040078;28;20108;-65
2021/09/12 12:14:47;;;;;;;9.63;8.02;;;24.70;82.30;;;;;;5034995;28;20022;-65
2021/09/12 12:17:15;;;;;;;10.40;8.02;;;24.70;81.30;;;;;;5044296;28;20025;-65
2021/09/12 12:19:41;;;;;;;8.70;7.13;;;24.60;81.20;;;;;;5039856;28;20410;-65
2021/09/12 12:22:08;;;;;;;11.85;9.05;;;24.30;81.80;;;;;;5044336;28;20060;-65
2021/09/12 12:24:58;;;;;;;;;;;;;;;;;;;;;
2021/09/12 12:27:37;;;;;;;8.45;7.63;;;23.70;82.30;;;;;;5058969;28;20031;-65
2021/09/12 12:30:26;;;;;;;;;;;;;;;;;;;;;
2021/09/12 12:32:52;;;;;;;9.20;7.47;;;25.10;79.50;;;;;;5049532;28;20033;-65
2021/09/12 12:35:19;;;;;;;9.70;8.20;;;25.30;78.50;;;;;;5059994;28;20441;-65
2021/09/12 12:37:46;;;;;;;7.40;6.65;;;26.30;77.50;;;;;;5058129;28;20017;-65
2021/09/12 12:40:20;;;;;;;7.78;6.95;;;27.60;75.90;;;;;;5066202;28;20021;-65
2021/09/12 12:42:48;;;;;;;10.65;8.02;;;29.00;73.10;;;;;;5045016;28;20127;-65
2021/09/12 12:45:27;;;;;;;7.90;6.70;;;30.20;68.70;;;;;;5063452;28;20052;-65
2021/09/12 12:47:55;;;;;;;8.65;6.60;;;31.20;66.20;;;;;;5058021;28;20066;-65
2021/09/12 12:50:34;;;;;;;9.10;7.60;;;32.00;63.80;;;;;;5058553;28;20040;-65
2021/09/12 12:53:15;;;;;;;8.02;6.03;;;32.30;59.90;;;;;;5062221;28;20013;-65
2021/09/12 12:55:42;;;;;;;7.38;6.53;;;32.30;58.80;;;;;;5063118;28;20009;-65